VAM Template | Vabird

Vabird! Vabird Marcello Mazzieri




 INFORMACIÓN METAR y TAF
METAR FOR GCFV
ADDS - METARS form results

(0525 UTC 21 October 2020)
Data provider http://aviationweather.gov/metar/data/
 
METAR text: GCFV 210500Z 24002KT CAVOK 22/18 Q1014
Conditions at: GCFV (FUERTEVENTURA AR, ES) observed 0500 UTC 21 October 2020
Temperature: 22.0°C (72°F)
Dewpoint: 18.0°C (64°F) [RH = 78%]
Pressure (altimeter): 29.94 inches Hg (1014.0 mb)
Winds: from the WSW (240 degrees) at 2 MPH (2 knots; 1.0 m/s)
Visibility: 6 or more miles (10+ km)
Ceiling: ceiling and visibility are OK
Clouds: unknown
Weather: no significant weather observed at this time

METAR text: GCFV 210430Z AUTO 25003KT 220V290 CAVOK 22/18 Q1014
Conditions at: GCFV (FUERTEVENTURA AR, ES) observed 0430 UTC 21 October 2020
Temperature: 22.0°C (72°F)
Dewpoint: 18.0°C (64°F) [RH = 78%]
Pressure (altimeter): 29.94 inches Hg (1014.0 mb)
Winds: from the WSW (250 degrees) at 3 MPH (3 knots; 1.5 m/s)
Visibility: 6 or more miles (10+ km)
Ceiling: ceiling and visibility are OK
Clouds: unknown
Weather: no significant weather observed at this time

Forecast for: GCFV (FUERTEVENTURA AR, ES)
Text: TAF GCFV 210200Z 2103/2203 30004KT 9999 FEW025 SCT045 TX26/2114Z TN21/2106Z
Forecast period: 0300 UTC 21 October 2020 to 0300 UTC 22 October 2020
Forecast type: FROM: standard forecast or significant change
Winds: from the WNW (300 degrees) at 5 MPH (4 knots; 2.1 m/s)
Visibility: 6 or more miles (10+ km)
Ceiling: at least 12,000 feet AGL
Clouds: few clouds at 2500 feet AGL
scattered clouds at 4500 feet AGL
Weather: no significant weather forecast for this period
Text: PROB40 2113/2117 30014KT
Forecast period: 1300 to 1700 UTC 21 October 2020
Forecast type: PROBABLE: 40 percent likelihood of the following during this time
Winds: from the WNW (300 degrees) at 16 MPH (14 knots; 7.2 m/s)
Visibility: missing
Ceiling: unknown
Clouds: missing
Weather: no significant weather forecast for this period

 MAPA DE AEROPUERTO

 INFORMACIÓN DE PISTA